Hujirt, Mongolia
Current Conditions -  °F | °C
As of 8:30 PM on Saturday 20 Dec 2014 (Local Time) from ZMUB Reporting Station
Scattered Clouds Scattered Clouds  
Wind Chill: -4°   Ceiling: Unl
Heat Index: -4°   Visibility: 6mi
Dew Point: -9°   Wind: 2mph
Humidity: 78%   Direction: NA
Pressure: 30.33"   Gusts: NA
Location:  46.9°N, 102.77°E
Report Text: ZMUB 201230Z VRB01MPS 9999 SCT100 M20/M23 Q1027 NOSIG RMK QFE661.7 75 NT
Loading
Personal Weather Stations






























Interactive Weather Map New forecast layout! Learn more

10-Day Weather Forecast

Advertisements
Track Severe Weather on mobile